General Aviation Weather

Text Reports

Enter one or more of the following location identifiers separated by a space:

Zip Code, Four-Character ICAO or Three-Character IATA airport codes.

METAR - Aviation Routine Weather Report
KOMK - Omak, Washington
Updated at 4:53 AM GMT on February 28, 2015 (8:53 PM PST):
METAR KOMK 280453Z AUTO 36008KT 10SM FEW055 05/M04 A2995 RMK AO2 SLP150 T00501039
TAF - Terminal Area Forecast
KOMK - Omak, Washington
Updated at 4:53 AM GMT on February 28, 2015 (8:53 PM PST):
No TAF is currently available for this location.
Decoded:
No decoded TAF is available.
PIREP - Pilot Weather Report
KOMK - Omak, Washington
Updated at 4:53 AM GMT on February 28, 2015 (8:53 PM PST):
No PIREP is currently available for this location.
AIRMET - Airmens Meteorological Information
KOMK - Omak, Washington
Updated at 4:53 AM GMT on February 28, 2015 (8:53 PM PST):
No AIRMET is currently available for this location.
SIGMET - Significant Meteorological Information
KOMK - Omak, Washington
Updated at 4:53 AM GMT on February 28, 2015 (8:53 PM PST):
No SIGMET is currently available for this location.
NOTAM - Notice to Airmen
KOMK - Omak, Washington
Updated at 4:53 AM GMT on February 28, 2015 (8:53 PM PST):
No NOTAM is currently available for this location.
Forecast Area
KOMK - Omak, Washington
Updated at 4:53 AM GMT on February 28, 2015 (8:53 PM PST):
No NOTAM is currently available for this location.
Aviation Weather Maps